Mason, Oklahoma
Current Conditions -  °F | °C
As of 8:35 PM on Tuesday 21 Oct 2014 (Local Time) from KOKM Reporting Station
Clear Clear  
Wind Chill: 68°   Ceiling: Unl
Heat Index: 68°   Visibility: 10mi
Dew Point: 62°   Wind: 0mph
Humidity: 83%   Direction: NA
Pressure: 30.05"   Gusts: NA
Location:  35.469°N, 96.2923°W
Report Text: KOKM 220135Z AUTO 00000KT 10SM CLR 20/17 A3005 RMK AO2 T01990169
Loading
Personal Weather Stations






























Interactive Weather Map
Tropical Storm Tracking
New forecast layout! Learn more

10-Day Weather Forecast

Advertisements
Track Severe Weather on mobile